KHXD

Hilton Head Airport

Hilton Head Island, South Carolina, USA
METAR KHXD 140435Z AUTO 00000KT 9SM -DZ FEW007 SCT032 BKN042 16/15 A3015 RMK AO2
Observed Flight Rules
Nov-14 @ 04:35 UTC (19 minutes ago) Visual Flight Rules
Visibility Clouds Conditions
9 miles
  • Few at 700' AGL
  • Scattered at 3,200' AGL
  • Broken at 4,200' AGL
  • Light Drizzle
Temperatures Readings
Current 16°C / 61°F
Dewpoint 15°C / 59°F
Humidity 94%
Altimeter 30.15" Hg
Pressure 1021 hPa
Elevation 6
METAR KHXD 140435Z AUTO 00000KT 9SM -DZ FEW007 SCT032 BKN042 16/15 A3015 RMK AO2
Observed Flight Rules
Nov-14 @ 04:35 UTC
(19 minutes ago)
VFR
Clouds
  • Few at 700' AGL
  • Scattered at 3,200' AGL
  • Broken at 4,200' AGL
Conditions
  • Light Drizzle
Temperature Dewpoint
16°C / 61°F 15°C / 59°F
Humidity Altimeter Pressure
94% 30.15" Hg 1021 hPa